createdAt,value
2023-01-29T00:01:43.901Z,31.25
2023-01-29T00:04:47.586Z,34.13
2023-01-29T00:07:58.509Z,31.77
2023-01-29T00:11:03.762Z,35.90
2023-01-29T00:14:07.254Z,30.88
2023-01-29T00:17:10.867Z,33.13
2023-01-29T00:20:15.663Z,32.47
2023-01-29T00:23:19.335Z,35.97
2023-01-29T00:26:22.814Z,29.75
2023-01-29T00:29:26.735Z,29.98
2023-01-29T00:32:31.096Z,30.77
2023-01-29T00:35:35.108Z,30.63
2023-01-29T00:38:40.123Z,32.03
2023-01-29T00:42:02.830Z,29.33
2023-01-29T00:45:07.677Z,35.22
2023-01-29T00:48:10.395Z,33.28
2023-01-29T00:51:13.332Z,31.70
2023-01-29T00:54:16.118Z,31.02
2023-01-29T00:57:18.820Z,30.98
2023-01-29T01:00:21.857Z,34.38
2023-01-29T01:03:24.878Z,29.85
2023-01-29T01:06:31.881Z,32.63
2023-01-29T01:10:01.249Z,32.33
2023-01-29T01:13:07.197Z,33.15
2023-01-29T01:16:16.249Z,32.50
2023-01-29T01:19:21.681Z,30.67
2023-01-29T01:22:25.764Z,33.17
2023-01-29T01:25:29.215Z,34.53
2023-01-29T01:28:40.768Z,32.72
2023-01-29T01:31:46.374Z,37.23
2023-01-29T01:34:49.211Z,32.25
2023-01-29T01:37:53.121Z,32.85
2023-01-29T01:40:55.954Z,35.60
2023-01-29T01:44:06.388Z,34.42
2023-01-29T01:47:08.913Z,34.57
2023-01-29T01:50:18.819Z,31.92
2023-01-29T01:53:39.568Z,30.92
2023-01-29T01:56:50.369Z,33.97
2023-01-29T02:00:10.281Z,31.60
2023-01-29T02:03:40.098Z,30.75
2023-01-29T02:07:06.244Z,36.15
2023-01-29T02:10:14.034Z,31.67
2023-01-29T02:13:19.463Z,34.58
2023-01-29T02:16:23.157Z,33.97
2023-01-29T02:19:38.214Z,33.83
2023-01-29T02:23:18.671Z,34.17
2023-01-29T02:26:24.801Z,30.12
2023-01-29T02:29:35.339Z,30.93
2023-01-29T02:32:55.255Z,32.22
2023-01-29T02:36:19.740Z,30.95
2023-01-29T02:39:36.982Z,33.90
2023-01-29T02:43:18.197Z,28.30
2023-01-29T02:46:43.785Z,30.70
2023-01-29T02:50:02.237Z,27.08
2023-01-29T02:53:13.055Z,30.70
2023-01-29T02:56:22.359Z,33.92
2023-01-29T02:59:34.321Z,32.00
2023-01-29T03:02:49.151Z,32.95
2023-01-29T03:06:24.583Z,29.50
2023-01-29T03:09:36.343Z,32.03
2023-01-29T03:12:41.677Z,28.27
2023-01-29T03:15:51.366Z,30.75
2023-01-29T03:19:03.388Z,28.80
2023-01-29T03:22:09.004Z,30.33
2023-01-29T03:25:34.341Z,25.80
2023-01-29T03:29:00.259Z,26.27
2023-01-29T03:32:09.435Z,30.45
2023-01-29T03:35:21.119Z,26.70
2023-01-29T03:38:31.717Z,27.48
2023-01-29T03:42:08.392Z,25.48
2023-01-29T03:45:31.543Z,27.08
2023-01-29T03:48:56.114Z,26.17
2023-01-29T03:52:09.073Z,27.50
2023-01-29T03:55:15.993Z,26.00
2023-01-29T03:58:36.861Z,25.23
2023-01-29T04:01:54.072Z,27.23
2023-01-29T04:05:05.325Z,29.45
2023-01-29T04:08:17.843Z,26.50
2023-01-29T04:11:23.954Z,26.23
2023-01-29T04:14:27.110Z,30.75
2023-01-29T04:17:36.863Z,25.95
2023-01-29T04:20:40.425Z,24.48
2023-01-29T04:23:43.880Z,24.35
2023-01-29T04:27:06.871Z,25.98
2023-01-29T04:30:22.151Z,26.20
2023-01-29T04:33:53.267Z,21.20
2023-01-29T04:37:15.285Z,25.17
2023-01-29T04:40:29.043Z,23.42
2023-01-29T04:43:44.410Z,23.53
2023-01-29T04:47:03.606Z,23.73
2023-01-29T04:50:22.220Z,23.52
2023-01-29T04:53:52.677Z,20.30
2023-01-29T04:57:09.248Z,19.37
2023-01-29T05:00:27.279Z,19.80
2023-01-29T05:03:32.905Z,21.92
2023-01-29T05:06:37.017Z,19.10
2023-01-29T05:09:44.237Z,18.27
2023-01-29T05:12:51.710Z,19.27
2023-01-29T05:16:01.805Z,21.42
2023-01-29T05:19:04.857Z,20.25
2023-01-29T05:22:16.351Z,22.27
2023-01-29T05:25:27.319Z,22.50
2023-01-29T05:28:34.622Z,21.97
2023-01-29T05:31:37.611Z,20.12
2023-01-29T05:34:40.977Z,19.92
2023-01-29T05:37:43.892Z,20.40
2023-01-29T05:41:08.381Z,18.43
2023-01-29T05:44:18.066Z,22.62
2023-01-29T05:47:23.395Z,21.37
2023-01-29T05:50:28.692Z,20.02
2023-01-29T05:53:34.331Z,21.58
2023-01-29T05:56:44.505Z,24.33
2023-01-29T05:59:48.711Z,24.02
2023-01-29T06:02:53.766Z,24.77
2023-01-29T06:05:57.013Z,21.15
2023-01-29T06:09:01.686Z,20.67
2023-01-29T06:12:07.963Z,16.90
2023-01-29T06:15:11.425Z,20.30
2023-01-29T06:18:16.052Z,22.42
2023-01-29T06:21:20.326Z,20.27
2023-01-29T06:24:26.345Z,19.30
2023-01-29T06:27:31.821Z,22.10
2023-01-29T06:30:45.386Z,20.15
2023-01-29T06:33:58.749Z,21.15
2023-01-29T06:37:02.139Z,18.62
2023-01-29T06:40:07.641Z,18.70
2023-01-29T06:43:13.585Z,17.25
2023-01-29T06:46:17.460Z,18.65
2023-01-29T06:49:25.183Z,18.75
2023-01-29T06:52:37.267Z,17.27
2023-01-29T06:55:42.656Z,17.97
2023-01-29T06:58:55.264Z,18.83
2023-01-29T07:02:01.275Z,18.62
2023-01-29T07:05:06.428Z,20.12
2023-01-29T07:08:10.379Z,16.70
2023-01-29T07:11:13.722Z,16.27
2023-01-29T07:14:18.232Z,18.20
2023-01-29T07:17:22.157Z,18.17
2023-01-29T07:20:30.207Z,16.20
2023-01-29T07:23:35.639Z,19.52
2023-01-29T07:26:40.535Z,18.35
2023-01-29T07:29:50.207Z,15.55
2023-01-29T07:32:53.871Z,18.25
2023-01-29T07:35:58.742Z,17.85
2023-01-29T07:39:04.441Z,17.53
2023-01-29T07:42:10.487Z,15.05
2023-01-29T07:45:14.586Z,14.57
2023-01-29T07:48:20.292Z,16.75
2023-01-29T07:51:24.600Z,15.00
2023-01-29T07:54:28.402Z,16.17
2023-01-29T07:58:02.152Z,17.80
2023-01-29T08:01:08.421Z,15.63
2023-01-29T08:04:20.113Z,16.40
2023-01-29T08:07:32.326Z,17.25
2023-01-29T08:10:39.111Z,16.67
2023-01-29T08:13:44.427Z,18.55
2023-01-29T08:16:57.820Z,15.35
2023-01-29T08:20:01.549Z,16.98
2023-01-29T08:23:14.652Z,17.50
2023-01-29T08:26:31.290Z,14.83
2023-01-29T08:29:42.145Z,17.08
2023-01-29T08:32:53.546Z,15.18
2023-01-29T08:36:18.186Z,15.80
2023-01-29T08:39:27.317Z,12.77
2023-01-29T08:42:38.751Z,15.23
2023-01-29T08:45:52.138Z,15.43
2023-01-29T08:48:59.501Z,18.12
2023-01-29T08:52:12.459Z,16.37
2023-01-29T08:55:20.788Z,15.65
2023-01-29T08:58:30.492Z,15.93
2023-01-29T09:01:36.812Z,13.20
2023-01-29T09:04:44.254Z,14.77
2023-01-29T09:07:52.136Z,16.75
2023-01-29T09:11:05.480Z,15.50
2023-01-29T09:14:16.251Z,14.07
2023-01-29T09:17:28.284Z,11.95
2023-01-29T09:20:40.522Z,16.73
2023-01-29T09:23:47.196Z,15.70
2023-01-29T09:26:57.767Z,13.73
2023-01-29T09:30:02.310Z,13.30
2023-01-29T09:33:14.261Z,13.57
2023-01-29T09:36:27.264Z,15.68
2023-01-29T09:39:37.798Z,13.90
2023-01-29T09:42:50.963Z,11.15
2023-01-29T09:46:15.514Z,13.73
2023-01-29T09:49:34.594Z,12.68
2023-01-29T09:53:16.073Z,13.18
2023-01-29T09:56:33.480Z,11.77
2023-01-29T09:59:40.297Z,13.55
2023-01-29T10:03:08.330Z,13.13
2023-01-29T10:06:35.550Z,12.93
2023-01-29T10:10:11.126Z,14.95
2023-01-29T10:13:35.161Z,13.00
2023-01-29T10:17:24.801Z,12.75
2023-01-29T10:21:32.263Z,16.47
2023-01-29T10:24:55.477Z,13.52
2023-01-29T10:28:05.250Z,15.38
2023-01-29T10:31:29.201Z,14.32
2023-01-29T10:34:56.521Z,13.07
2023-01-29T10:38:41.247Z,14.40
2023-01-29T10:42:18.050Z,15.90
2023-01-29T10:46:04.332Z,14.68
2023-01-29T10:49:28.652Z,16.55
2023-01-29T10:53:06.379Z,10.93
2023-01-29T10:56:25.553Z,11.70
2023-01-29T11:00:07.468Z,13.45
2023-01-29T11:03:31.406Z,12.40
2023-01-29T11:06:41.052Z,13.88
2023-01-29T11:10:00.871Z,13.55
2023-01-29T11:13:13.800Z,10.60
2023-01-29T11:16:20.563Z,10.40
2023-01-29T11:19:44.170Z,10.98
2023-01-29T11:23:07.586Z,12.50
2023-01-29T11:26:25.538Z,12.98
2023-01-29T11:30:05.189Z,13.83
2023-01-29T11:33:27.240Z,15.65
2023-01-29T11:36:42.604Z,14.18
2023-01-29T11:40:00.161Z,13.98
2023-01-29T11:43:28.248Z,13.95
2023-01-29T11:46:33.667Z,14.47
2023-01-29T11:49:40.533Z,13.70
2023-01-29T11:52:46.262Z,13.77
2023-01-29T11:55:57.402Z,15.10
2023-01-29T11:59:08.241Z,11.43
2023-01-29T12:02:28.312Z,14.20
2023-01-29T12:05:35.286Z,13.98
2023-01-29T12:08:43.239Z,22.58
2023-01-29T12:11:57.230Z,11.55
2023-01-29T12:15:14.134Z,14.65
2023-01-29T12:18:40.500Z,12.50
2023-01-29T12:21:50.152Z,14.27
2023-01-29T12:25:24.183Z,13.32
2023-01-29T12:28:39.630Z,12.00
2023-01-29T12:31:58.552Z,12.27
2023-01-29T12:35:42.282Z,11.20
2023-01-29T12:38:46.438Z,10.90
2023-01-29T12:41:57.734Z,12.02
2023-01-29T12:45:08.260Z,12.27
2023-01-29T12:48:23.180Z,12.43
2023-01-29T12:51:40.223Z,11.83
2023-01-29T12:54:56.171Z,9.40
2023-01-29T12:58:05.270Z,13.35
2023-01-29T13:01:25.182Z,10.75
2023-01-29T13:04:45.669Z,10.82
2023-01-29T13:08:10.153Z,11.10
2023-01-29T13:11:27.248Z,10.77
2023-01-29T13:14:44.319Z,11.45
2023-01-29T13:17:55.561Z,11.05
2023-01-29T13:21:07.307Z,13.43
2023-01-29T13:24:25.494Z,10.97
2023-01-29T13:27:36.098Z,12.00
2023-01-29T13:30:41.798Z,12.52
2023-01-29T13:34:00.200Z,12.40
2023-01-29T13:37:35.228Z,12.50
2023-01-29T13:40:50.853Z,12.57
2023-01-29T13:43:57.159Z,11.93
2023-01-29T13:47:11.708Z,10.75
2023-01-29T13:50:35.293Z,10.13
2023-01-29T13:53:50.071Z,10.35
2023-01-29T13:57:01.201Z,11.10
2023-01-29T14:00:12.252Z,11.93
2023-01-29T14:03:22.131Z,13.02
2023-01-29T14:06:53.693Z,10.23
2023-01-29T14:10:16.309Z,9.77
2023-01-29T14:13:32.161Z,11.00
2023-01-29T14:16:37.573Z,14.13
2023-01-29T14:19:56.806Z,11.85
2023-01-29T14:23:25.407Z,13.32
2023-01-29T14:26:44.003Z,10.63
2023-01-29T14:30:06.154Z,11.48
2023-01-29T14:33:37.187Z,12.55
2023-01-29T14:36:43.389Z,10.43
2023-01-29T14:40:13.278Z,9.45
2023-01-29T14:43:22.003Z,14.53
2023-01-29T14:46:44.788Z,13.02
2023-01-29T14:49:58.408Z,15.13
2023-01-29T14:53:31.216Z,14.57
2023-01-29T14:57:01.102Z,13.57
2023-01-29T15:00:28.604Z,14.23
2023-01-29T15:03:54.153Z,11.82
2023-01-29T15:07:20.305Z,12.85
2023-01-29T15:10:46.151Z,12.77
2023-01-29T15:14:12.085Z,12.37
2023-01-29T15:17:33.139Z,13.27
2023-01-29T15:20:40.760Z,14.43
2023-01-29T15:23:50.422Z,17.53
2023-01-29T15:26:55.374Z,18.12
2023-01-29T15:30:14.149Z,14.50
2023-01-29T15:33:19.112Z,14.70
2023-01-29T15:36:33.448Z,13.30
2023-01-29T15:39:46.148Z,20.33
2023-01-29T15:42:59.048Z,17.58
2023-01-29T15:46:16.682Z,21.90
2023-01-29T15:49:42.238Z,16.57
2023-01-29T15:53:00.399Z,16.70
2023-01-29T15:56:35.028Z,16.37
2023-01-29T15:59:44.981Z,17.15
2023-01-29T16:03:00.071Z,17.67
2023-01-29T16:06:18.381Z,17.20
2023-01-29T16:09:28.219Z,17.42
2023-01-29T16:12:35.194Z,17.42
2023-01-29T16:15:58.426Z,21.30
2023-01-29T16:19:25.214Z,19.37
2023-01-29T16:22:41.726Z,20.83
2023-01-29T16:25:57.122Z,22.83
2023-01-29T16:29:15.108Z,26.30
2023-01-29T16:32:23.138Z,21.92
2023-01-29T16:35:28.326Z,19.87
2023-01-29T16:38:47.182Z,26.45
2023-01-29T16:42:17.591Z,25.00
2023-01-29T16:45:43.057Z,18.05
2023-01-29T16:49:09.094Z,20.98
2023-01-29T16:52:27.820Z,29.55
2023-01-29T16:55:51.160Z,29.83
2023-01-29T16:58:58.217Z,27.95
2023-01-29T17:02:23.238Z,25.98
2023-01-29T17:05:39.125Z,22.27
2023-01-29T17:08:44.137Z,23.83
2023-01-29T17:12:08.026Z,21.75
2023-01-29T17:15:46.248Z,27.55
2023-01-29T17:18:58.331Z,24.00
2023-01-29T17:22:06.118Z,33.33
2023-01-29T17:25:25.124Z,28.38
2023-01-29T17:28:31.006Z,30.00
2023-01-29T17:31:43.203Z,30.35
2023-01-29T17:34:49.775Z,27.97
2023-01-29T17:37:58.190Z,31.60
2023-01-29T17:41:39.132Z,31.50
2023-01-29T17:44:45.130Z,26.62
2023-01-29T17:47:58.136Z,24.00
2023-01-29T17:51:18.131Z,16.80
2023-01-29T17:54:28.356Z,21.25
2023-01-29T17:57:38.488Z,18.27
2023-01-29T18:00:47.181Z,19.63
2023-01-29T18:03:59.309Z,20.23
2023-01-29T18:07:12.199Z,19.92
2023-01-29T18:10:23.743Z,18.90
2023-01-29T18:13:29.228Z,26.23
2023-01-29T18:16:46.553Z,17.60
2023-01-29T18:19:52.121Z,20.23
2023-01-29T18:23:11.388Z,18.87
2023-01-29T18:26:31.229Z,19.50
2023-01-29T18:29:47.165Z,17.87
2023-01-29T18:32:58.517Z,21.50
2023-01-29T18:36:06.848Z,20.40
2023-01-29T18:39:13.499Z,18.73
2023-01-29T18:42:25.027Z,21.00
2023-01-29T18:45:31.227Z,19.65
2023-01-29T18:48:42.511Z,17.40
2023-01-29T18:51:52.090Z,18.52
2023-01-29T18:55:03.346Z,17.17
2023-01-29T18:58:28.510Z,19.73
2023-01-29T19:01:34.331Z,17.53
2023-01-29T19:04:47.054Z,15.55
2023-01-29T19:07:53.083Z,19.75
2023-01-29T19:11:04.054Z,19.20
2023-01-29T19:14:15.085Z,21.60
2023-01-29T19:17:37.126Z,19.83
2023-01-29T19:20:52.067Z,19.65
2023-01-29T19:24:04.461Z,19.35
2023-01-29T19:27:09.907Z,18.60
2023-01-29T19:30:17.324Z,21.67
2023-01-29T19:33:21.796Z,21.25
2023-01-29T19:36:34.276Z,25.95
2023-01-29T19:39:38.777Z,26.02
2023-01-29T19:42:43.243Z,25.90
2023-01-29T19:45:55.419Z,27.92
2023-01-29T19:49:04.154Z,29.03
2023-01-29T19:52:49.707Z,30.88
2023-01-29T19:56:13.424Z,28.20
2023-01-29T19:59:21.543Z,26.67
2023-01-29T20:02:33.312Z,22.50
2023-01-29T20:05:56.980Z,21.55
2023-01-29T20:09:11.985Z,22.80
2023-01-29T20:12:23.210Z,22.33
2023-01-29T20:15:38.009Z,25.05
2023-01-29T20:18:53.534Z,23.17
2023-01-29T20:22:09.122Z,26.52
2023-01-29T20:25:22.109Z,22.20
2023-01-29T20:28:35.080Z,22.70
2023-01-29T20:31:38.913Z,25.95
2023-01-29T20:34:47.443Z,30.13
2023-01-29T20:37:56.121Z,27.65
2023-01-29T20:41:21.069Z,24.80
2023-01-29T20:44:28.088Z,24.27
2023-01-29T20:47:39.371Z,23.63
2023-01-29T20:50:44.115Z,21.92
2023-01-29T20:53:51.170Z,20.37
2023-01-29T20:57:12.231Z,21.77
2023-01-29T21:00:22.121Z,21.98
2023-01-29T21:03:29.630Z,21.75
2023-01-29T21:06:36.591Z,25.77
2023-01-29T21:09:48.057Z,23.87
2023-01-29T21:13:01.335Z,21.60
2023-01-29T21:16:11.044Z,25.45
2023-01-29T21:19:21.814Z,21.40
2023-01-29T21:22:26.989Z,22.37
2023-01-29T21:25:40.244Z,25.15
2023-01-29T21:28:53.233Z,21.73
2023-01-29T21:31:55.953Z,25.17
2023-01-29T21:35:00.093Z,22.67
2023-01-29T21:38:06.065Z,22.83
2023-01-29T21:41:12.256Z,23.58
2023-01-29T21:44:17.073Z,20.33
2023-01-29T21:47:24.090Z,21.40
2023-01-29T21:50:34.985Z,19.35
2023-01-29T21:53:40.063Z,25.37
2023-01-29T21:56:51.804Z,23.15
2023-01-29T21:59:56.128Z,22.50
2023-01-29T22:03:01.540Z,27.98
2023-01-29T22:06:07.129Z,27.37
2023-01-29T22:09:11.260Z,24.65
2023-01-29T22:12:14.502Z,23.42
2023-01-29T22:15:17.468Z,28.80
2023-01-29T22:18:21.850Z,28.87
2023-01-29T22:21:24.828Z,27.80
2023-01-29T22:24:28.657Z,25.23
2023-01-29T22:27:34.056Z,25.80
2023-01-29T22:30:39.192Z,22.42
2023-01-29T22:33:44.069Z,35.03
2023-01-29T22:36:47.601Z,127.85
2023-01-29T22:39:53.620Z,82.85
2023-01-29T22:42:57.543Z,49.20
2023-01-29T22:46:00.468Z,31.57
2023-01-29T22:49:04.556Z,27.10
2023-01-29T22:52:10.552Z,29.37
2023-01-29T22:55:14.101Z,25.05
2023-01-29T22:58:18.085Z,28.35
2023-01-29T23:01:24.287Z,27.70
2023-01-29T23:04:27.425Z,28.70
2023-01-29T23:07:31.103Z,29.57
2023-01-29T23:10:34.586Z,29.17
2023-01-29T23:13:38.115Z,30.37
2023-01-29T23:16:42.445Z,28.97
2023-01-29T23:19:48.035Z,34.78
2023-01-29T23:22:51.938Z,31.75
2023-01-29T23:26:19.004Z,27.83
2023-01-29T23:29:23.127Z,30.35
2023-01-29T23:32:32.958Z,34.20
2023-01-29T23:35:35.957Z,32.67
2023-01-29T23:38:40.347Z,33.93
2023-01-29T23:41:43.646Z,32.42
2023-01-29T23:44:48.125Z,28.42
2023-01-29T23:47:50.655Z,28.70
2023-01-29T23:50:53.820Z,28.95
2023-01-29T23:53:56.742Z,26.87
2023-01-29T23:56:59.857Z,29.10
